sensor_id;sensor_type;location;lat;lon;timestamp;P1;durP1;ratioP1;P2;durP2;ratioP2
26484;SDS011;18083;50.560;7.262;2023-03-04T00:01:32;129.10;;;50.70;;
26484;SDS011;18083;50.560;7.262;2023-03-04T00:03:59;141.47;;;54.63;;
26484;SDS011;18083;50.560;7.262;2023-03-04T00:06:27;137.77;;;51.57;;
26484;SDS011;18083;50.560;7.262;2023-03-04T00:08:54;151.77;;;55.90;;
26484;SDS011;18083;50.560;7.262;2023-03-04T00:11:22;125.80;;;48.93;;
26484;SDS011;18083;50.560;7.262;2023-03-04T00:13:49;131.73;;;51.27;;
26484;SDS011;18083;50.560;7.262;2023-03-04T00:16:16;130.27;;;50.87;;
26484;SDS011;18083;50.560;7.262;2023-03-04T00:18:44;130.20;;;53.50;;
26484;SDS011;18083;50.560;7.262;2023-03-04T00:21:11;143.40;;;49.13;;
26484;SDS011;18083;50.560;7.262;2023-03-04T00:23:39;133.60;;;53.70;;
26484;SDS011;18083;50.560;7.262;2023-03-04T00:26:07;132.60;;;54.13;;
26484;SDS011;18083;50.560;7.262;2023-03-04T00:28:35;141.30;;;55.00;;
26484;SDS011;18083;50.560;7.262;2023-03-04T00:31:02;133.10;;;50.87;;
26484;SDS011;18083;50.560;7.262;2023-03-04T00:33:29;120.40;;;49.67;;
26484;SDS011;18083;50.560;7.262;2023-03-04T00:35:57;145.33;;;57.07;;
26484;SDS011;18083;50.560;7.262;2023-03-04T00:38:24;129.43;;;51.70;;
26484;SDS011;18083;50.560;7.262;2023-03-04T00:40:51;137.67;;;53.77;;
26484;SDS011;18083;50.560;7.262;2023-03-04T00:43:19;128.67;;;50.03;;
26484;SDS011;18083;50.560;7.262;2023-03-04T00:45:46;131.87;;;50.40;;
26484;SDS011;18083;50.560;7.262;2023-03-04T00:48:14;136.43;;;51.80;;
26484;SDS011;18083;50.560;7.262;2023-03-04T00:50:42;135.97;;;51.27;;
26484;SDS011;18083;50.560;7.262;2023-03-04T00:53:09;124.37;;;50.73;;
26484;SDS011;18083;50.560;7.262;2023-03-04T00:55:37;120.67;;;49.33;;
26484;SDS011;18083;50.560;7.262;2023-03-04T00:58:04;126.37;;;52.87;;
26484;SDS011;18083;50.560;7.262;2023-03-04T01:00:31;133.17;;;51.23;;
26484;SDS011;18083;50.560;7.262;2023-03-04T01:02:59;131.73;;;51.57;;
26484;SDS011;18083;50.560;7.262;2023-03-04T01:05:26;134.37;;;54.90;;
26484;SDS011;18083;50.560;7.262;2023-03-04T01:07:53;130.73;;;51.03;;
26484;SDS011;18083;50.560;7.262;2023-03-04T01:10:21;125.87;;;48.97;;
26484;SDS011;18083;50.560;7.262;2023-03-04T01:12:48;120.47;;;51.00;;
26484;SDS011;18083;50.560;7.262;2023-03-04T01:15:15;122.13;;;49.47;;
26484;SDS011;18083;50.560;7.262;2023-03-04T01:17:43;117.40;;;49.60;;
26484;SDS011;18083;50.560;7.262;2023-03-04T01:20:11;128.87;;;51.03;;
26484;SDS011;18083;50.560;7.262;2023-03-04T01:22:39;128.13;;;48.93;;
26484;SDS011;18083;50.560;7.262;2023-03-04T01:25:07;126.97;;;48.57;;
26484;SDS011;18083;50.560;7.262;2023-03-04T01:27:34;126.63;;;51.20;;
26484;SDS011;18083;50.560;7.262;2023-03-04T01:30:02;130.10;;;51.00;;
26484;SDS011;18083;50.560;7.262;2023-03-04T01:32:30;117.57;;;48.77;;
26484;SDS011;18083;50.560;7.262;2023-03-04T01:34:57;127.70;;;49.07;;
26484;SDS011;18083;50.560;7.262;2023-03-04T01:37:24;122.03;;;48.33;;
26484;SDS011;18083;50.560;7.262;2023-03-04T01:39:52;127.37;;;49.87;;
26484;SDS011;18083;50.560;7.262;2023-03-04T01:42:20;137.50;;;51.23;;
26484;SDS011;18083;50.560;7.262;2023-03-04T01:44:48;137.00;;;49.87;;
26484;SDS011;18083;50.560;7.262;2023-03-04T01:47:16;122.00;;;49.07;;
26484;SDS011;18083;50.560;7.262;2023-03-04T01:49:52;124.63;;;52.90;;
26484;SDS011;18083;50.560;7.262;2023-03-04T01:52:12;130.00;;;51.63;;
26484;SDS011;18083;50.560;7.262;2023-03-04T01:54:40;128.53;;;54.10;;
26484;SDS011;18083;50.560;7.262;2023-03-04T01:57:17;130.10;;;51.50;;
26484;SDS011;18083;50.560;7.262;2023-03-04T01:59:45;122.07;;;50.30;;
26484;SDS011;18083;50.560;7.262;2023-03-04T02:02:13;139.37;;;53.47;;
26484;SDS011;18083;50.560;7.262;2023-03-04T02:04:40;122.10;;;48.57;;
26484;SDS011;18083;50.560;7.262;2023-03-04T02:07:08;128.43;;;52.03;;
26484;SDS011;18083;50.560;7.262;2023-03-04T02:09:35;129.27;;;49.43;;
26484;SDS011;18083;50.560;7.262;2023-03-04T02:12:03;131.70;;;50.93;;
26484;SDS011;18083;50.560;7.262;2023-03-04T02:14:30;140.80;;;53.17;;
26484;SDS011;18083;50.560;7.262;2023-03-04T02:16:58;134.97;;;53.10;;
26484;SDS011;18083;50.560;7.262;2023-03-04T02:19:46;130.30;;;49.83;;
26484;SDS011;18083;50.560;7.262;2023-03-04T02:21:57;120.37;;;47.50;;
26484;SDS011;18083;50.560;7.262;2023-03-04T02:24:32;142.27;;;53.13;;
26484;SDS011;18083;50.560;7.262;2023-03-04T02:26:59;118.00;;;51.17;;
26484;SDS011;18083;50.560;7.262;2023-03-04T02:29:26;128.37;;;48.53;;
26484;SDS011;18083;50.560;7.262;2023-03-04T02:31:54;122.67;;;48.43;;
26484;SDS011;18083;50.560;7.262;2023-03-04T02:34:22;112.87;;;47.17;;
26484;SDS011;18083;50.560;7.262;2023-03-04T02:36:51;135.47;;;50.17;;
26484;SDS011;18083;50.560;7.262;2023-03-04T02:41:48;133.93;;;52.17;;
26484;SDS011;18083;50.560;7.262;2023-03-04T02:44:19;122.67;;;49.63;;
26484;SDS011;18083;50.560;7.262;2023-03-04T02:46:48;113.37;;;47.93;;
26484;SDS011;18083;50.560;7.262;2023-03-04T02:49:16;113.50;;;46.33;;
26484;SDS011;18083;50.560;7.262;2023-03-04T02:51:43;122.33;;;48.63;;
26484;SDS011;18083;50.560;7.262;2023-03-04T02:54:14;118.13;;;49.30;;
26484;SDS011;18083;50.560;7.262;2023-03-04T02:56:45;123.90;;;50.27;;
26484;SDS011;18083;50.560;7.262;2023-03-04T02:59:12;118.23;;;49.13;;
26484;SDS011;18083;50.560;7.262;2023-03-04T03:01:40;138.27;;;49.67;;
26484;SDS011;18083;50.560;7.262;2023-03-04T03:04:07;117.77;;;50.67;;
26484;SDS011;18083;50.560;7.262;2023-03-04T03:06:35;136.33;;;50.40;;
26484;SDS011;18083;50.560;7.262;2023-03-04T03:09:02;108.90;;;47.80;;
26484;SDS011;18083;50.560;7.262;2023-03-04T03:11:30;132.07;;;51.10;;
26484;SDS011;18083;50.560;7.262;2023-03-04T03:13:57;125.83;;;50.23;;
26484;SDS011;18083;50.560;7.262;2023-03-04T03:16:24;122.13;;;49.10;;
26484;SDS011;18083;50.560;7.262;2023-03-04T03:18:52;128.00;;;51.00;;
26484;SDS011;18083;50.560;7.262;2023-03-04T03:21:19;121.20;;;51.00;;
26484;SDS011;18083;50.560;7.262;2023-03-04T03:23:47;133.50;;;50.73;;
26484;SDS011;18083;50.560;7.262;2023-03-04T03:26:14;126.73;;;48.67;;
26484;SDS011;18083;50.560;7.262;2023-03-04T03:28:42;145.27;;;52.20;;
26484;SDS011;18083;50.560;7.262;2023-03-04T03:31:09;124.83;;;51.17;;
26484;SDS011;18083;50.560;7.262;2023-03-04T03:33:36;123.67;;;49.23;;
26484;SDS011;18083;50.560;7.262;2023-03-04T03:36:04;126.93;;;49.80;;
26484;SDS011;18083;50.560;7.262;2023-03-04T03:38:32;125.47;;;51.00;;
26484;SDS011;18083;50.560;7.262;2023-03-04T03:40:59;129.50;;;50.83;;
26484;SDS011;18083;50.560;7.262;2023-03-04T03:43:26;118.30;;;45.93;;
26484;SDS011;18083;50.560;7.262;2023-03-04T03:45:54;127.20;;;50.37;;
26484;SDS011;18083;50.560;7.262;2023-03-04T03:48:21;138.37;;;51.30;;
26484;SDS011;18083;50.560;7.262;2023-03-04T03:50:48;122.30;;;48.87;;
26484;SDS011;18083;50.560;7.262;2023-03-04T03:53:16;137.30;;;51.80;;
26484;SDS011;18083;50.560;7.262;2023-03-04T03:55:43;120.57;;;48.87;;
26484;SDS011;18083;50.560;7.262;2023-03-04T03:58:10;120.77;;;49.47;;
26484;SDS011;18083;50.560;7.262;2023-03-04T04:00:38;125.03;;;48.80;;
26484;SDS011;18083;50.560;7.262;2023-03-04T04:03:05;123.20;;;49.83;;
26484;SDS011;18083;50.560;7.262;2023-03-04T04:05:32;131.33;;;50.53;;
26484;SDS011;18083;50.560;7.262;2023-03-04T04:08:00;128.97;;;52.30;;
26484;SDS011;18083;50.560;7.262;2023-03-04T04:10:27;131.27;;;49.70;;
26484;SDS011;18083;50.560;7.262;2023-03-04T04:12:54;126.33;;;48.40;;
26484;SDS011;18083;50.560;7.262;2023-03-04T04:15:22;134.50;;;53.23;;
26484;SDS011;18083;50.560;7.262;2023-03-04T04:17:49;121.57;;;49.37;;
26484;SDS011;18083;50.560;7.262;2023-03-04T04:20:16;131.37;;;52.20;;
26484;SDS011;18083;50.560;7.262;2023-03-04T04:22:44;120.30;;;45.97;;
26484;SDS011;18083;50.560;7.262;2023-03-04T04:25:11;127.53;;;52.00;;
26484;SDS011;18083;50.560;7.262;2023-03-04T04:27:38;131.77;;;50.33;;
26484;SDS011;18083;50.560;7.262;2023-03-04T04:30:06;128.67;;;51.43;;
26484;SDS011;18083;50.560;7.262;2023-03-04T04:32:33;131.43;;;51.40;;
26484;SDS011;18083;50.560;7.262;2023-03-04T04:35:01;126.10;;;48.73;;
26484;SDS011;18083;50.560;7.262;2023-03-04T04:37:28;122.33;;;49.67;;
26484;SDS011;18083;50.560;7.262;2023-03-04T04:39:55;131.53;;;52.20;;
26484;SDS011;18083;50.560;7.262;2023-03-04T04:42:23;124.53;;;52.23;;
26484;SDS011;18083;50.560;7.262;2023-03-04T04:44:50;143.37;;;53.37;;
26484;SDS011;18083;50.560;7.262;2023-03-04T04:47:17;121.73;;;47.47;;
26484;SDS011;18083;50.560;7.262;2023-03-04T04:49:45;119.77;;;46.90;;
26484;SDS011;18083;50.560;7.262;2023-03-04T04:52:12;127.70;;;46.60;;
26484;SDS011;18083;50.560;7.262;2023-03-04T04:54:39;120.73;;;51.50;;
26484;SDS011;18083;50.560;7.262;2023-03-04T04:57:07;123.90;;;51.73;;
26484;SDS011;18083;50.560;7.262;2023-03-04T04:59:34;121.00;;;50.07;;
26484;SDS011;18083;50.560;7.262;2023-03-04T05:02:02;106.83;;;48.00;;
26484;SDS011;18083;50.560;7.262;2023-03-04T05:04:29;108.93;;;46.20;;
26484;SDS011;18083;50.560;7.262;2023-03-04T05:06:56;116.23;;;50.73;;
26484;SDS011;18083;50.560;7.262;2023-03-04T05:09:24;123.10;;;49.20;;
26484;SDS011;18083;50.560;7.262;2023-03-04T05:11:51;130.77;;;51.30;;
26484;SDS011;18083;50.560;7.262;2023-03-04T05:14:18;133.33;;;49.90;;
26484;SDS011;18083;50.560;7.262;2023-03-04T05:16:46;131.07;;;48.70;;
26484;SDS011;18083;50.560;7.262;2023-03-04T05:19:13;118.97;;;46.87;;
26484;SDS011;18083;50.560;7.262;2023-03-04T05:21:40;121.10;;;52.07;;
26484;SDS011;18083;50.560;7.262;2023-03-04T05:24:08;127.20;;;52.63;;
26484;SDS011;18083;50.560;7.262;2023-03-04T05:26:35;127.87;;;48.23;;
26484;SDS011;18083;50.560;7.262;2023-03-04T05:29:03;122.03;;;48.60;;
26484;SDS011;18083;50.560;7.262;2023-03-04T05:31:30;122.63;;;51.13;;
26484;SDS011;18083;50.560;7.262;2023-03-04T05:33:57;132.27;;;47.77;;
26484;SDS011;18083;50.560;7.262;2023-03-04T05:36:25;116.80;;;48.83;;
26484;SDS011;18083;50.560;7.262;2023-03-04T05:38:52;117.90;;;47.43;;
26484;SDS011;18083;50.560;7.262;2023-03-04T05:41:19;112.37;;;48.40;;
26484;SDS011;18083;50.560;7.262;2023-03-04T05:43:48;128.33;;;52.43;;
26484;SDS011;18083;50.560;7.262;2023-03-04T05:46:16;117.77;;;51.40;;
26484;SDS011;18083;50.560;7.262;2023-03-04T05:48:44;124.07;;;52.10;;
26484;SDS011;18083;50.560;7.262;2023-03-04T05:51:11;125.67;;;50.53;;
26484;SDS011;18083;50.560;7.262;2023-03-04T05:53:39;139.07;;;52.20;;
26484;SDS011;18083;50.560;7.262;2023-03-04T05:56:12;111.07;;;46.27;;
26484;SDS011;18083;50.560;7.262;2023-03-04T05:58:39;141.63;;;49.87;;
26484;SDS011;18083;50.560;7.262;2023-03-04T06:01:06;120.63;;;51.20;;
26484;SDS011;18083;50.560;7.262;2023-03-04T06:03:33;114.87;;;48.87;;
26484;SDS011;18083;50.560;7.262;2023-03-04T06:06:01;120.50;;;48.83;;
26484;SDS011;18083;50.560;7.262;2023-03-04T06:08:28;120.17;;;50.90;;
26484;SDS011;18083;50.560;7.262;2023-03-04T06:10:56;125.93;;;49.17;;
26484;SDS011;18083;50.560;7.262;2023-03-04T06:13:24;132.07;;;49.27;;
26484;SDS011;18083;50.560;7.262;2023-03-04T06:15:55;119.67;;;50.37;;
26484;SDS011;18083;50.560;7.262;2023-03-04T06:18:23;118.17;;;48.33;;
26484;SDS011;18083;50.560;7.262;2023-03-04T06:20:54;119.47;;;50.57;;
26484;SDS011;18083;50.560;7.262;2023-03-04T06:23:20;137.47;;;49.60;;
26484;SDS011;18083;50.560;7.262;2023-03-04T06:25:50;118.73;;;49.87;;
26484;SDS011;18083;50.560;7.262;2023-03-04T06:28:16;115.17;;;47.47;;
26484;SDS011;18083;50.560;7.262;2023-03-04T06:30:43;125.63;;;51.03;;
26484;SDS011;18083;50.560;7.262;2023-03-04T06:33:10;131.27;;;50.10;;
26484;SDS011;18083;50.560;7.262;2023-03-04T06:35:38;128.57;;;49.23;;
26484;SDS011;18083;50.560;7.262;2023-03-04T06:38:05;122.03;;;49.43;;
26484;SDS011;18083;50.560;7.262;2023-03-04T06:40:33;124.20;;;49.80;;
26484;SDS011;18083;50.560;7.262;2023-03-04T06:43:00;133.70;;;49.80;;
26484;SDS011;18083;50.560;7.262;2023-03-04T06:45:27;115.00;;;49.00;;
26484;SDS011;18083;50.560;7.262;2023-03-04T06:47:55;130.43;;;50.17;;
26484;SDS011;18083;50.560;7.262;2023-03-04T06:50:22;128.23;;;47.80;;
26484;SDS011;18083;50.560;7.262;2023-03-04T06:52:49;124.00;;;51.47;;
26484;SDS011;18083;50.560;7.262;2023-03-04T06:55:17;126.80;;;48.03;;
26484;SDS011;18083;50.560;7.262;2023-03-04T06:57:44;118.77;;;49.57;;
26484;SDS011;18083;50.560;7.262;2023-03-04T07:00:12;129.97;;;51.53;;
26484;SDS011;18083;50.560;7.262;2023-03-04T07:02:39;110.17;;;46.20;;
26484;SDS011;18083;50.560;7.262;2023-03-04T07:05:08;113.77;;;48.77;;
26484;SDS011;18083;50.560;7.262;2023-03-04T07:07:35;123.37;;;51.60;;
26484;SDS011;18083;50.560;7.262;2023-03-04T07:10:03;114.87;;;45.90;;
26484;SDS011;18083;50.560;7.262;2023-03-04T07:12:30;102.33;;;44.90;;
26484;SDS011;18083;50.560;7.262;2023-03-04T07:14:58;105.37;;;45.57;;
26484;SDS011;18083;50.560;7.262;2023-03-04T07:17:25;106.23;;;43.47;;
26484;SDS011;18083;50.560;7.262;2023-03-04T07:19:52;91.60;;;44.67;;
26484;SDS011;18083;50.560;7.262;2023-03-04T07:22:20;102.37;;;43.03;;
26484;SDS011;18083;50.560;7.262;2023-03-04T07:24:47;108.40;;;44.37;;
26484;SDS011;18083;50.560;7.262;2023-03-04T07:27:14;99.20;;;44.43;;
26484;SDS011;18083;50.560;7.262;2023-03-04T07:29:42;101.67;;;42.60;;
26484;SDS011;18083;50.560;7.262;2023-03-04T07:32:09;109.53;;;42.80;;
26484;SDS011;18083;50.560;7.262;2023-03-04T07:34:36;98.07;;;41.33;;
26484;SDS011;18083;50.560;7.262;2023-03-04T07:37:04;119.60;;;45.33;;
26484;SDS011;18083;50.560;7.262;2023-03-04T07:39:31;104.00;;;46.43;;
26484;SDS011;18083;50.560;7.262;2023-03-04T07:41:58;109.90;;;47.37;;
26484;SDS011;18083;50.560;7.262;2023-03-04T07:44:26;114.83;;;45.60;;
26484;SDS011;18083;50.560;7.262;2023-03-04T07:46:53;118.37;;;45.50;;
26484;SDS011;18083;50.560;7.262;2023-03-04T07:49:20;107.70;;;44.40;;
26484;SDS011;18083;50.560;7.262;2023-03-04T07:51:48;115.63;;;46.47;;
26484;SDS011;18083;50.560;7.262;2023-03-04T07:54:15;106.57;;;46.93;;
26484;SDS011;18083;50.560;7.262;2023-03-04T07:56:44;105.50;;;43.90;;
26484;SDS011;18083;50.560;7.262;2023-03-04T07:59:12;86.37;;;38.70;;
26484;SDS011;18083;50.560;7.262;2023-03-04T08:01:39;91.87;;;39.40;;
26484;SDS011;18083;50.560;7.262;2023-03-04T08:04:06;95.73;;;40.17;;
26484;SDS011;18083;50.560;7.262;2023-03-04T08:06:34;88.63;;;38.83;;
26484;SDS011;18083;50.560;7.262;2023-03-04T08:09:03;115.63;;;38.10;;
26484;SDS011;18083;50.560;7.262;2023-03-04T08:11:32;103.53;;;42.43;;
26484;SDS011;18083;50.560;7.262;2023-03-04T08:13:59;99.80;;;45.03;;
26484;SDS011;18083;50.560;7.262;2023-03-04T08:16:27;96.27;;;39.53;;
26484;SDS011;18083;50.560;7.262;2023-03-04T08:18:55;101.53;;;40.97;;
26484;SDS011;18083;50.560;7.262;2023-03-04T08:21:23;92.03;;;39.97;;
26484;SDS011;18083;50.560;7.262;2023-03-04T08:23:51;93.47;;;40.87;;
26484;SDS011;18083;50.560;7.262;2023-03-04T08:26:23;88.20;;;35.37;;
26484;SDS011;18083;50.560;7.262;2023-03-04T08:28:50;72.23;;;30.57;;
26484;SDS011;18083;50.560;7.262;2023-03-04T08:31:18;66.77;;;30.40;;
26484;SDS011;18083;50.560;7.262;2023-03-04T08:33:45;84.30;;;35.00;;
26484;SDS011;18083;50.560;7.262;2023-03-04T08:36:13;81.30;;;36.03;;
26484;SDS011;18083;50.560;7.262;2023-03-04T08:38:41;93.53;;;38.47;;
26484;SDS011;18083;50.560;7.262;2023-03-04T08:41:08;99.83;;;37.50;;
26484;SDS011;18083;50.560;7.262;2023-03-04T08:43:35;100.90;;;38.80;;
26484;SDS011;18083;50.560;7.262;2023-03-04T08:46:03;111.00;;;40.33;;
26484;SDS011;18083;50.560;7.262;2023-03-04T08:48:30;90.40;;;35.70;;
26484;SDS011;18083;50.560;7.262;2023-03-04T08:50:58;85.10;;;33.83;;
26484;SDS011;18083;50.560;7.262;2023-03-04T08:53:25;64.67;;;30.73;;
26484;SDS011;18083;50.560;7.262;2023-03-04T08:55:53;68.30;;;29.40;;
26484;SDS011;18083;50.560;7.262;2023-03-04T08:58:20;57.67;;;26.43;;
26484;SDS011;18083;50.560;7.262;2023-03-04T09:00:48;49.63;;;20.63;;
26484;SDS011;18083;50.560;7.262;2023-03-04T09:03:16;39.07;;;19.40;;
26484;SDS011;18083;50.560;7.262;2023-03-04T09:05:47;40.90;;;19.00;;
26484;SDS011;18083;50.560;7.262;2023-03-04T09:08:14;41.47;;;18.77;;
26484;SDS011;18083;50.560;7.262;2023-03-04T09:10:42;40.70;;;19.60;;
26484;SDS011;18083;50.560;7.262;2023-03-04T09:13:16;38.90;;;18.57;;
26484;SDS011;18083;50.560;7.262;2023-03-04T09:15:44;40.23;;;19.27;;
26484;SDS011;18083;50.560;7.262;2023-03-04T09:18:12;35.93;;;17.17;;
26484;SDS011;18083;50.560;7.262;2023-03-04T09:20:40;44.83;;;15.33;;
26484;SDS011;18083;50.560;7.262;2023-03-04T09:23:07;36.83;;;17.60;;
26484;SDS011;18083;50.560;7.262;2023-03-04T09:25:35;32.03;;;15.30;;
26484;SDS011;18083;50.560;7.262;2023-03-04T09:28:03;35.73;;;16.90;;
26484;SDS011;18083;50.560;7.262;2023-03-04T09:30:30;38.57;;;15.80;;
26484;SDS011;18083;50.560;7.262;2023-03-04T09:32:57;41.77;;;16.00;;
26484;SDS011;18083;50.560;7.262;2023-03-04T09:35:25;29.30;;;13.80;;
26484;SDS011;18083;50.560;7.262;2023-03-04T09:37:52;38.30;;;17.10;;
26484;SDS011;18083;50.560;7.262;2023-03-04T09:40:36;23.30;;;12.03;;
26484;SDS011;18083;50.560;7.262;2023-03-04T09:43:01;18.00;;;8.67;;
26484;SDS011;18083;50.560;7.262;2023-03-04T09:45:36;23.67;;;8.40;;
26484;SDS011;18083;50.560;7.262;2023-03-04T09:48:04;23.90;;;8.10;;
26484;SDS011;18083;50.560;7.262;2023-03-04T09:50:32;15.53;;;5.93;;
26484;SDS011;18083;50.560;7.262;2023-03-04T09:55:44;15.63;;;7.10;;
26484;SDS011;18083;50.560;7.262;2023-03-04T10:00:45;13.73;;;5.87;;
26484;SDS011;18083;50.560;7.262;2023-03-04T10:05:45;13.37;;;6.77;;
26484;SDS011;18083;50.560;7.262;2023-03-04T10:08:18;18.37;;;5.57;;
26484;SDS011;18083;50.560;7.262;2023-03-04T10:10:40;18.93;;;6.93;;
26484;SDS011;18083;50.560;7.262;2023-03-04T10:13:10;14.93;;;6.30;;
26484;SDS011;18083;50.560;7.262;2023-03-04T10:15:44;19.00;;;9.10;;
26484;SDS011;18083;50.560;7.262;2023-03-04T10:18:23;17.47;;;6.20;;
26484;SDS011;18083;50.560;7.262;2023-03-04T10:20:55;18.30;;;6.30;;
26484;SDS011;18083;50.560;7.262;2023-03-04T10:23:24;13.20;;;5.33;;
26484;SDS011;18083;50.560;7.262;2023-03-04T10:25:51;19.17;;;6.63;;
26484;SDS011;18083;50.560;7.262;2023-03-04T10:28:21;14.47;;;5.13;;
26484;SDS011;18083;50.560;7.262;2023-03-04T10:33:18;19.23;;;6.40;;
26484;SDS011;18083;50.560;7.262;2023-03-04T10:35:47;16.90;;;6.03;;
26484;SDS011;18083;50.560;7.262;2023-03-04T10:38:15;15.93;;;5.27;;
26484;SDS011;18083;50.560;7.262;2023-03-04T10:40:42;11.53;;;5.50;;
26484;SDS011;18083;50.560;7.262;2023-03-04T10:43:14;10.90;;;5.80;;
26484;SDS011;18083;50.560;7.262;2023-03-04T10:45:42;14.50;;;5.67;;
26484;SDS011;18083;50.560;7.262;2023-03-04T10:48:21;16.40;;;5.03;;
26484;SDS011;18083;50.560;7.262;2023-03-04T10:50:47;12.30;;;4.90;;
26484;SDS011;18083;50.560;7.262;2023-03-04T10:53:22;10.50;;;5.20;;
26484;SDS011;18083;50.560;7.262;2023-03-04T10:55:44;13.43;;;4.87;;
26484;SDS011;18083;50.560;7.262;2023-03-04T10:58:12;11.00;;;4.73;;
26484;SDS011;18083;50.560;7.262;2023-03-04T11:00:40;15.03;;;6.53;;
26484;SDS011;18083;50.560;7.262;2023-03-04T11:05:45;10.03;;;6.03;;
26484;SDS011;18083;50.560;7.262;2023-03-04T11:08:16;12.17;;;5.30;;
26484;SDS011;18083;50.560;7.262;2023-03-04T11:10:46;18.87;;;5.67;;
26484;SDS011;18083;50.560;7.262;2023-03-04T11:13:16;17.53;;;5.60;;
26484;SDS011;18083;50.560;7.262;2023-03-04T11:15:54;12.33;;;6.03;;
26484;SDS011;18083;50.560;7.262;2023-03-04T11:20:56;13.57;;;6.70;;
26484;SDS011;18083;50.560;7.262;2023-03-04T11:25:58;13.97;;;6.83;;
26484;SDS011;18083;50.560;7.262;2023-03-04T11:28:28;12.63;;;5.70;;
26484;SDS011;18083;50.560;7.262;2023-03-04T11:30:54;11.63;;;6.37;;
26484;SDS011;18083;50.560;7.262;2023-03-04T11:33:37;19.40;;;8.17;;
26484;SDS011;18083;50.560;7.262;2023-03-04T11:36:22;10.20;;;5.13;;
26484;SDS011;18083;50.560;7.262;2023-03-04T11:38:49;7.20;;;4.60;;
26484;SDS011;18083;50.560;7.262;2023-03-04T11:41:37;8.23;;;4.07;;
26484;SDS011;18083;50.560;7.262;2023-03-04T11:43:49;8.47;;;4.60;;
26484;SDS011;18083;50.560;7.262;2023-03-04T11:49:06;7.07;;;4.90;;
26484;SDS011;18083;50.560;7.262;2023-03-04T11:56:50;10.13;;;4.60;;
26484;SDS011;18083;50.560;7.262;2023-03-04T12:02:00;9.53;;;4.20;;
26484;SDS011;18083;50.560;7.262;2023-03-04T12:12:55;9.17;;;4.87;;
26484;SDS011;18083;50.560;7.262;2023-03-04T12:15:38;9.70;;;4.87;;
26484;SDS011;18083;50.560;7.262;2023-03-04T12:23:21;10.40;;;5.67;;
26484;SDS011;18083;50.560;7.262;2023-03-04T12:25:48;9.07;;;6.07;;
26484;SDS011;18083;50.560;7.262;2023-03-04T12:28:17;8.23;;;5.10;;
26484;SDS011;18083;50.560;7.262;2023-03-04T12:38:43;9.30;;;5.80;;
26484;SDS011;18083;50.560;7.262;2023-03-04T12:41:19;10.17;;;5.33;;
26484;SDS011;18083;50.560;7.262;2023-03-04T12:54:30;13.33;;;5.37;;
26484;SDS011;18083;50.560;7.262;2023-03-04T12:57:01;13.50;;;5.33;;
26484;SDS011;18083;50.560;7.262;2023-03-04T12:59:33;7.87;;;4.50;;
26484;SDS011;18083;50.560;7.262;2023-03-04T13:02:03;8.77;;;5.43;;
26484;SDS011;18083;50.560;7.262;2023-03-04T13:04:40;7.47;;;4.00;;
26484;SDS011;18083;50.560;7.262;2023-03-04T13:07:20;9.03;;;4.73;;
26484;SDS011;18083;50.560;7.262;2023-03-04T13:09:48;10.90;;;5.90;;
26484;SDS011;18083;50.560;7.262;2023-03-04T13:12:16;13.47;;;5.77;;
26484;SDS011;18083;50.560;7.262;2023-03-04T13:17:41;11.67;;;6.80;;
26484;SDS011;18083;50.560;7.262;2023-03-04T13:25:33;11.90;;;6.63;;
26484;SDS011;18083;50.560;7.262;2023-03-04T13:41:10;13.83;;;5.27;;
26484;SDS011;18083;50.560;7.262;2023-03-04T13:43:41;5.67;;;3.80;;
26484;SDS011;18083;50.560;7.262;2023-03-04T13:51:18;9.80;;;4.53;;
26484;SDS011;18083;50.560;7.262;2023-03-04T13:59:01;9.17;;;3.40;;
26484;SDS011;18083;50.560;7.262;2023-03-04T14:01:29;6.70;;;3.27;;
26484;SDS011;18083;50.560;7.262;2023-03-04T14:03:58;9.93;;;3.60;;
26484;SDS011;18083;50.560;7.262;2023-03-04T14:06:26;12.20;;;3.47;;
26484;SDS011;18083;50.560;7.262;2023-03-04T14:08:54;7.23;;;3.00;;
26484;SDS011;18083;50.560;7.262;2023-03-04T14:11:23;5.57;;;3.40;;
26484;SDS011;18083;50.560;7.262;2023-03-04T14:13:51;4.37;;;2.77;;
26484;SDS011;18083;50.560;7.262;2023-03-04T14:16:19;8.97;;;4.33;;
26484;SDS011;18083;50.560;7.262;2023-03-04T14:18:56;5.27;;;2.90;;
26484;SDS011;18083;50.560;7.262;2023-03-04T14:21:15;5.60;;;3.03;;
26484;SDS011;18083;50.560;7.262;2023-03-04T14:23:43;8.23;;;3.20;;
26484;SDS011;18083;50.560;7.262;2023-03-04T14:26:11;4.50;;;2.90;;
26484;SDS011;18083;50.560;7.262;2023-03-04T14:28:43;5.70;;;3.13;;
26484;SDS011;18083;50.560;7.262;2023-03-04T14:31:16;9.43;;;2.83;;
26484;SDS011;18083;50.560;7.262;2023-03-04T14:33:42;9.10;;;3.13;;
26484;SDS011;18083;50.560;7.262;2023-03-04T14:36:12;5.00;;;2.43;;
26484;SDS011;18083;50.560;7.262;2023-03-04T14:38:37;6.23;;;2.70;;
26484;SDS011;18083;50.560;7.262;2023-03-04T14:41:08;13.27;;;2.83;;
26484;SDS011;18083;50.560;7.262;2023-03-04T14:43:38;5.17;;;2.40;;
26484;SDS011;18083;50.560;7.262;2023-03-04T14:46:04;6.47;;;2.27;;
26484;SDS011;18083;50.560;7.262;2023-03-04T14:48:33;8.47;;;2.90;;
26484;SDS011;18083;50.560;7.262;2023-03-04T14:51:01;5.37;;;2.13;;
26484;SDS011;18083;50.560;7.262;2023-03-04T14:53:29;2.33;;;2.13;;
26484;SDS011;18083;50.560;7.262;2023-03-04T14:56:01;4.73;;;3.37;;
26484;SDS011;18083;50.560;7.262;2023-03-04T14:58:28;4.30;;;2.00;;
26484;SDS011;18083;50.560;7.262;2023-03-04T15:03:31;8.20;;;1.90;;
26484;SDS011;18083;50.560;7.262;2023-03-04T15:06:15;5.43;;;2.63;;
26484;SDS011;18083;50.560;7.262;2023-03-04T15:08:34;4.70;;;2.43;;
26484;SDS011;18083;50.560;7.262;2023-03-04T15:11:03;2.97;;;1.67;;
26484;SDS011;18083;50.560;7.262;2023-03-04T15:13:40;4.87;;;1.87;;
26484;SDS011;18083;50.560;7.262;2023-03-04T15:16:08;3.17;;;2.10;;
26484;SDS011;18083;50.560;7.262;2023-03-04T15:18:36;2.10;;;1.90;;
26484;SDS011;18083;50.560;7.262;2023-03-04T15:21:04;3.53;;;1.80;;
26484;SDS011;18083;50.560;7.262;2023-03-04T15:23:32;1.80;;;1.60;;
26484;SDS011;18083;50.560;7.262;2023-03-04T15:26:00;5.03;;;1.83;;
26484;SDS011;18083;50.560;7.262;2023-03-04T15:28:35;3.60;;;2.07;;
26484;SDS011;18083;50.560;7.262;2023-03-04T15:31:03;2.10;;;1.80;;
26484;SDS011;18083;50.560;7.262;2023-03-04T15:33:31;2.60;;;1.50;;
26484;SDS011;18083;50.560;7.262;2023-03-04T15:35:59;2.87;;;2.57;;
26484;SDS011;18083;50.560;7.262;2023-03-04T15:38:27;4.30;;;2.13;;
26484;SDS011;18083;50.560;7.262;2023-03-04T15:40:55;3.77;;;1.47;;
26484;SDS011;18083;50.560;7.262;2023-03-04T15:43:26;2.63;;;1.83;;
26484;SDS011;18083;50.560;7.262;2023-03-04T15:45:53;5.83;;;3.87;;
26484;SDS011;18083;50.560;7.262;2023-03-04T15:48:20;5.43;;;2.10;;
26484;SDS011;18083;50.560;7.262;2023-03-04T15:50:55;3.97;;;2.33;;
26484;SDS011;18083;50.560;7.262;2023-03-04T15:55:54;5.67;;;2.07;;
26484;SDS011;18083;50.560;7.262;2023-03-04T15:58:22;9.07;;;4.13;;
26484;SDS011;18083;50.560;7.262;2023-03-04T16:00:49;9.60;;;2.37;;
26484;SDS011;18083;50.560;7.262;2023-03-04T16:03:17;6.90;;;2.50;;
26484;SDS011;18083;50.560;7.262;2023-03-04T16:05:45;5.97;;;2.30;;
26484;SDS011;18083;50.560;7.262;2023-03-04T16:08:13;6.00;;;2.80;;